Terminal Aerodrome Forecast
Issued by NWS

Current Version | Previous Version | Graphics & Text | Print | Product List | Glossary On
Versions: 1 2 3 4 5 6 7 8 9 10 11 12 13 14 15 16 17
000
FTUS41 KPBZ 200500
TAFMGW
TAF
KMGW 200539Z 2006/2106 VRB06KT P6SM SCT050 OVC060
     FM201000 24010G20KT 6SM -SHSN OVC025
     FM201600 25008KT P6SM BKN035=

USA.gov is the U.S. government's official web portal to all federal, state and local government web resources and services.